Time;durP1;ratioP1;P1;durP2;ratioP2;P2;SDS_P1;SDS_P2;PMS_P1;PMS_P2;Temp;Humidity;BMP_temperature;BMP_pressure;BME280_temperature;BME280_humidity;BME280_pressure;Samples;Min_cycle;Max_cycle;Signal;HPM_P1;HPM_P2
2022/01/02 00:02:12;;;;;;;7.55;3.47;;;;;;;10.61;100.00;101682.53;5052170;28;20049;-53
2022/01/02 00:04:47;;;;;;;8.50;3.47;;;;;;;10.64;100.00;101683.19;5052338;28;20057;-50
2022/01/02 00:07:17;;;;;;;9.25;3.80;;;;;;;10.66;100.00;101688.38;5050428;28;20057;-53
2022/01/02 00:09:47;;;;;;;7.50;3.53;;;;;;;10.61;100.00;101701.78;5049737;28;20530;-54
2022/01/02 00:12:20;;;;;;;9.45;3.00;;;;;;;10.59;100.00;101687.00;5050619;28;20044;-53
2022/01/02 00:14:49;;;;;;;7.88;3.65;;;;;;;10.58;100.00;101683.53;5052346;28;20518;-52
2022/01/02 00:17:22;;;;;;;8.05;3.17;;;;;;;10.58;100.00;101691.44;5052184;28;20095;-52
2022/01/02 00:19:55;;;;;;;9.57;3.75;;;;;;;10.58;100.00;101707.22;5052344;28;20388;-53
2022/01/02 00:22:30;;;;;;;8.32;3.80;;;;;;;10.58;100.00;101693.19;5052343;28;20055;-52
2022/01/02 00:24:58;;;;;;;8.65;3.80;;;;;;;10.57;100.00;101700.25;5051465;28;20041;-52
2022/01/02 00:27:29;;;;;;;7.68;3.20;;;;;;;10.56;100.00;101688.00;5048821;28;20128;-52
2022/01/02 00:29:58;;;;;;;8.40;3.90;;;;;;;10.54;100.00;101687.25;5049444;28;20067;-53
2022/01/02 00:32:27;;;;;;;7.38;3.25;;;;;;;10.52;100.00;101680.38;5049376;28;20061;-53
2022/01/02 00:34:58;;;;;;;8.07;3.03;;;;;;;10.50;100.00;101688.34;5049389;28;20041;-51
2022/01/02 00:37:26;;;;;;;7.45;3.22;;;;;;;10.53;100.00;101688.19;5050853;28;20049;-51
2022/01/02 00:39:54;;;;;;;8.50;3.53;;;;;;;10.49;100.00;101703.25;5051643;28;20288;-52
2022/01/02 00:42:30;;;;;;;8.02;3.13;;;;;;;10.53;100.00;101698.69;5048786;28;20557;-53
2022/01/02 00:45:04;;;;;;;7.72;3.60;;;;;;;10.54;100.00;101700.41;5050225;28;20056;-51
2022/01/02 00:47:38;;;;;;;7.97;3.55;;;;;;;10.55;100.00;101704.75;5051472;28;20064;-52
2022/01/02 00:50:10;;;;;;;5.78;3.05;;;;;;;10.56;100.00;101692.44;5051500;28;20407;-50
2022/01/02 00:52:40;;;;;;;7.03;3.40;;;;;;;10.57;100.00;101688.88;5051447;28;20045;-50
2022/01/02 00:55:10;;;;;;;8.30;3.28;;;;;;;10.55;100.00;101683.72;5051603;28;20049;-53
2022/01/02 00:57:41;;;;;;;7.85;3.10;;;;;;;10.56;100.00;101680.13;5051704;28;20039;-53
2022/01/02 01:00:12;;;;;;;7.90;3.55;;;;;;;10.52;100.00;101669.84;5050739;28;20500;-52
2022/01/02 01:02:45;;;;;;;6.00;2.70;;;;;;;10.52;100.00;101675.94;5050824;28;20056;-52
2022/01/02 01:05:20;;;;;;;6.60;3.53;;;;;;;10.51;100.00;101671.63;5051560;28;20143;-53
2022/01/02 01:07:50;;;;;;;8.88;3.50;;;;;;;10.49;100.00;101666.44;5050420;28;20041;-54
2022/01/02 01:10:19;;;;;;;7.53;3.25;;;;;;;10.52;100.00;101664.59;5048428;28;20075;-53
2022/01/02 01:12:50;;;;;;;10.20;3.30;;;;;;;10.53;100.00;101661.88;5050295;28;20041;-53
2022/01/02 01:15:19;;;;;;;9.48;3.22;;;;;;;10.49;100.00;101658.53;5048315;28;20044;-55
2022/01/02 01:17:48;;;;;;;8.60;3.10;;;;;;;10.48;100.00;101656.88;5048130;28;20045;-55
2022/01/02 01:20:17;;;;;;;7.47;3.30;;;;;;;10.54;100.00;101660.09;5051270;28;20494;-54
2022/01/02 01:22:46;;;;;;;6.65;3.67;;;;;;;10.46;100.00;101677.13;5049221;28;20049;-54
2022/01/02 01:25:16;;;;;;;8.30;3.13;;;;;;;10.46;100.00;101674.50;5048570;28;20071;-54
2022/01/02 01:27:45;;;;;;;8.52;3.45;;;;;;;10.45;100.00;101670.16;5050310;28;20049;-52
2022/01/02 01:30:16;;;;;;;8.65;3.33;;;;;;;10.45;100.00;101664.06;5050782;28;20061;-54
2022/01/02 01:32:45;;;;;;;9.23;3.53;;;;;;;10.45;100.00;101661.44;5051273;28;20537;-54
2022/01/02 01:35:14;;;;;;;10.27;3.55;;;;;;;10.43;100.00;101661.50;5051122;28;20049;-51
2022/01/02 01:37:44;;;;;;;10.40;3.40;;;;;;;10.45;100.00;101649.13;5048529;28;20052;-53
2022/01/02 01:40:16;;;;;;;10.60;4.00;;;;;;;10.39;100.00;101649.44;5048043;28;20140;-54
2022/01/02 01:42:55;;;;;;;10.02;3.83;;;;;;;10.40;100.00;101642.41;5051284;28;20081;-53
2022/01/02 01:45:30;;;;;;;8.52;3.65;;;;;;;10.42;100.00;101637.94;5049012;28;20404;-55
2022/01/02 01:48:01;;;;;;;10.23;3.67;;;;;;;10.48;100.00;101637.59;5046870;28;20504;-53
2022/01/02 01:50:32;;;;;;;10.27;3.80;;;;;;;10.47;100.00;101633.25;5049459;28;20059;-52
2022/01/02 01:53:01;;;;;;;12.32;3.83;;;;;;;10.41;100.00;101613.38;5050586;28;20408;-52
2022/01/02 01:55:32;;;;;;;10.80;3.65;;;;;;;10.40;100.00;101610.84;5047768;28;20060;-53
2022/01/02 01:58:01;;;;;;;8.45;3.35;;;;;;;10.43;100.00;101605.41;5049115;28;20079;-52
2022/01/02 02:00:33;;;;;;;9.57;3.83;;;;;;;10.40;100.00;101603.81;5050596;28;20148;-51
2022/01/02 02:03:02;;;;;;;11.63;3.60;;;;;;;10.42;100.00;101593.22;5050952;28;20041;-52
2022/01/02 02:05:30;;;;;;;10.68;3.65;;;;;;;10.43;100.00;101587.88;5048100;28;20501;-53
2022/01/02 02:07:58;;;;;;;10.05;3.47;;;;;;;10.44;100.00;101578.19;5047724;28;20381;-53
2022/01/02 02:10:34;;;;;;;11.38;3.13;;;;;;;10.45;100.00;101577.28;5051072;28;20069;-53
2022/01/02 02:13:04;;;;;;;12.25;3.38;;;;;;;10.46;100.00;101577.19;5054545;28;20060;-53
2022/01/02 02:15:33;;;;;;;9.30;3.80;;;;;;;10.45;100.00;101566.75;5054525;28;20044;-55
2022/01/02 02:18:01;;;;;;;8.57;3.40;;;;;;;10.44;100.00;101565.91;5050481;28;20052;-53
2022/01/02 02:20:32;;;;;;;9.52;3.10;;;;;;;10.48;100.00;101556.94;5052037;28;20064;-54
2022/01/02 02:23:01;;;;;;;13.63;3.80;;;;;;;10.47;100.00;101559.63;5054403;28;20041;-53
2022/01/02 02:25:31;;;;;;;11.20;3.75;;;;;;;10.46;100.00;101539.53;5054488;28;20455;-54
2022/01/02 02:28:01;;;;;;;10.75;3.58;;;;;;;10.48;100.00;101551.69;5052435;28;20088;-53
2022/01/02 02:30:31;;;;;;;9.27;3.50;;;;;;;10.47;100.00;101541.22;5050667;28;20520;-54
2022/01/02 02:33:01;;;;;;;13.73;3.67;;;;;;;10.47;100.00;101541.22;5052243;28;20081;-54
2022/01/02 02:35:33;;;;;;;10.85;4.22;;;;;;;10.47;100.00;101546.47;5051248;28;20049;-55
2022/01/02 02:38:01;;;;;;;16.60;4.55;;;;;;;10.47;100.00;101528.94;5051817;28;20041;-55
2022/01/02 02:40:31;;;;;;;9.55;3.08;;;;;;;10.57;100.00;101518.75;5053906;28;20120;-54
2022/01/02 02:43:03;;;;;;;9.68;3.35;;;;;;;10.57;100.00;101526.66;5053350;28;20053;-54
2022/01/02 02:51:29;;;;;;;13.32;3.08;;;;;;;10.74;100.00;101502.03;4972868;28;20050;-52
2022/01/02 02:53:57;;;;;;;12.10;3.33;;;;;;;10.82;100.00;101494.59;4989403;28;20054;-53
2022/01/02 02:56:30;;;;;;;10.70;2.80;;;;;;;10.80;100.00;101500.88;5022747;28;20068;-52
2022/01/02 02:58:58;;;;;;;;;;;;;;;10.90;100.00;101499.41;5054235;28;20041;-55
2022/01/02 03:01:28;;;;;;;9.02;2.75;;;;;;;10.96;100.00;101492.94;5053046;28;20447;-53
2022/01/02 03:03:56;;;;;;;11.05;3.40;;;;;;;10.97;100.00;101479.69;5050257;28;20115;-53
2022/01/02 03:06:26;;;;;;;9.75;2.70;;;;;;;11.05;100.00;101481.06;5051288;28;20048;-52
2022/01/02 03:08:54;;;;;;;9.00;2.65;;;;;;;11.11;100.00;101473.66;5053517;28;20099;-54
2022/01/02 03:11:24;;;;;;;10.77;2.55;;;;;;;11.17;100.00;101472.47;5051543;28;20048;-53
2022/01/02 03:13:54;;;;;;;10.82;2.47;;;;;;;11.26;100.00;101464.03;5051012;28;20057;-52
2022/01/02 03:16:23;;;;;;;11.05;2.92;;;;;;;11.30;100.00;101462.06;5052875;28;20523;-54
2022/01/02 03:18:51;;;;;;;11.73;3.10;;;;;;;11.29;100.00;101453.31;5052043;28;20048;-54
2022/01/02 03:21:19;;;;;;;11.95;3.10;;;;;;;11.31;100.00;101450.59;5050427;28;20056;-54
2022/01/02 03:23:49;;;;;;;10.35;2.97;;;;;;;11.32;100.00;101455.75;5051193;28;20045;-53
2022/01/02 03:26:17;;;;;;;13.15;3.10;;;;;;;11.27;100.00;101462.22;5050555;28;20045;-54
2022/01/02 03:28:46;;;;;;;15.18;3.42;;;;;;;11.23;100.00;101465.97;5050338;28;20079;-54
2022/01/02 03:31:16;;;;;;;9.55;2.72;;;;;;;11.22;100.00;101469.53;5052750;28;20053;-54
2022/01/02 03:33:44;;;;;;;10.35;2.95;;;;;;;11.24;100.00;101468.53;5053043;28;20041;-54
2022/01/02 03:36:12;;;;;;;9.52;3.05;;;;;;;11.19;100.00;101460.03;5053086;28;20107;-53
2022/01/02 03:38:40;;;;;;;11.65;3.30;;;;;;;11.21;100.00;101441.50;5051066;28;20068;-54
2022/01/02 03:41:10;;;;;;;9.45;2.83;;;;;;;11.24;100.00;101460.63;5050114;28;20408;-54
2022/01/02 03:43:38;;;;;;;12.60;3.42;;;;;;;11.22;100.00;101449.34;5052405;28;20109;-55
2022/01/02 03:46:06;;;;;;;10.68;3.08;;;;;;;11.20;100.00;101450.38;5052652;28;20069;-54
2022/01/02 03:48:35;;;;;;;10.85;3.00;;;;;;;11.21;100.00;101445.00;5051190;28;20103;-54
2022/01/02 03:51:05;;;;;;;9.23;2.95;;;;;;;11.18;100.00;101446.97;5049853;28;20046;-55
2022/01/02 03:53:33;;;;;;;11.57;2.85;;;;;;;11.26;100.00;101440.34;5050933;28;20146;-55
2022/01/02 03:56:02;;;;;;;9.27;2.90;;;;;;;11.24;100.00;101439.56;5052608;28;20045;-52
2022/01/02 03:58:31;;;;;;;10.00;2.85;;;;;;;11.28;100.00;101442.88;5052647;28;20065;-54
2022/01/02 04:00:59;;;;;;;10.73;2.90;;;;;;;11.28;100.00;101435.81;5052325;28;20044;-53
2022/01/02 04:03:28;;;;;;;9.65;2.50;;;;;;;11.31;100.00;101430.34;5052391;28;20052;-52
2022/01/02 04:05:56;;;;;;;9.98;2.72;;;;;;;11.28;100.00;101427.91;5052351;28;20497;-52
2022/01/02 04:08:24;;;;;;;8.90;2.80;;;;;;;11.31;100.00;101416.34;5052292;28;20048;-54
2022/01/02 04:10:52;;;;;;;8.38;2.28;;;;;;;11.31;100.00;101414.56;5052542;28;20128;-54
2022/01/02 04:13:20;;;;;;;11.20;2.88;;;;;;;11.34;100.00;101416.16;5050991;28;20053;-53
2022/01/02 04:15:49;;;;;;;16.20;4.15;;;;;;;11.35;100.00;101415.22;5052219;28;20099;-51
2022/01/02 04:18:17;;;;;;;7.93;2.17;;;;;;;11.33;100.00;101417.97;5052189;28;20048;-55
2022/01/02 04:20:48;;;;;;;8.68;2.67;;;;;;;11.45;100.00;101400.59;5052342;28;20068;-55
2022/01/02 04:23:17;;;;;;;7.07;2.35;;;;;;;11.43;100.00;101404.25;5051491;28;20599;-54
2022/01/02 04:25:45;;;;;;;9.70;3.03;;;;;;;11.44;100.00;101403.31;5051582;28;20500;-51
2022/01/02 04:28:13;;;;;;;11.30;2.78;;;;;;;11.43;100.00;101399.00;5051441;28;20052;-52
2022/01/02 04:30:41;;;;;;;10.75;2.80;;;;;;;11.41;100.00;101392.94;5051624;28;20049;-50
2022/01/02 04:33:11;;;;;;;7.47;2.50;;;;;;;11.43;100.00;101413.00;5051712;28;20080;-52
2022/01/02 04:35:39;;;;;;;9.23;3.05;;;;;;;11.41;100.00;101411.38;5048774;28;20060;-54
2022/01/02 04:38:07;;;;;;;9.73;2.42;;;;;;;11.49;100.00;101403.88;5049248;28;20087;-52
2022/01/02 04:40:35;;;;;;;11.85;2.70;;;;;;;11.57;100.00;101411.31;5051593;28;20044;-52
2022/01/02 04:43:03;;;;;;;9.15;2.70;;;;;;;11.57;100.00;101408.69;5051690;28;20102;-53
2022/01/02 04:45:31;;;;;;;10.52;2.92;;;;;;;11.49;100.00;101410.00;5051797;28;20052;-51
2022/01/02 04:47:59;;;;;;;11.35;2.92;;;;;;;11.47;100.00;101411.03;5051526;28;20044;-52
2022/01/02 04:50:29;;;;;;;12.77;2.90;;;;;;;11.36;100.00;101413.44;5051750;28;20045;-54
2022/01/02 04:52:57;;;;;;;10.88;3.05;;;;;;;11.29;100.00;101405.09;5051650;28;20045;-51
2022/01/02 04:55:25;;;;;;;10.75;3.58;;;;;;;11.28;100.00;101406.00;5050259;28;20132;-53
2022/01/02 04:57:53;;;;;;;8.52;2.83;;;;;;;11.24;100.00;101413.22;5051505;28;20056;-51
2022/01/02 05:00:21;;;;;;;11.50;3.00;;;;;;;11.23;100.00;101401.00;5051255;28;20091;-52
2022/01/02 05:02:49;;;;;;;10.10;3.40;;;;;;;11.16;100.00;101392.59;5051432;28;20045;-53
2022/01/02 05:05:18;;;;;;;10.38;3.25;;;;;;;11.16;100.00;101397.88;5050555;28;20053;-52
2022/01/02 05:07:47;;;;;;;10.75;3.03;;;;;;;11.12;100.00;101390.25;5048233;28;20488;-54
2022/01/02 05:10:16;;;;;;;10.80;3.42;;;;;;;11.11;100.00;101388.56;5050390;28;20404;-54
2022/01/02 05:12:44;;;;;;;10.85;2.80;;;;;;;11.04;100.00;101385.44;5051406;28;20045;-53
2022/01/02 05:15:12;;;;;;;8.10;3.40;;;;;;;11.00;100.00;101373.41;5051131;28;20053;-55
2022/01/02 05:17:40;;;;;;;13.95;3.47;;;;;;;10.93;100.00;101366.81;5050296;28;20056;-54
2022/01/02 05:20:09;;;;;;;11.30;3.13;;;;;;;10.98;100.00;101368.22;5048780;28;20041;-53
2022/01/02 05:22:37;;;;;;;10.70;3.40;;;;;;;10.97;100.00;101363.88;5049873;28;20067;-54
2022/01/02 05:25:08;;;;;;;8.90;2.85;;;;;;;10.94;100.00;101365.88;5051311;28;20083;-51
2022/01/02 05:27:36;;;;;;;9.95;3.50;;;;;;;10.91;100.00;101353.75;5051065;28;20045;-53
2022/01/02 05:30:05;;;;;;;10.43;3.40;;;;;;;10.89;100.00;101352.13;5051092;28;20103;-53
2022/01/02 05:32:33;;;;;;;12.85;3.35;;;;;;;10.89;100.00;101358.22;5051036;28;20107;-51
2022/01/02 05:35:02;;;;;;;8.93;3.08;;;;;;;10.88;100.00;101348.66;5051495;28;20075;-53
2022/01/02 05:37:30;;;;;;;12.93;3.03;;;;;;;10.85;100.00;101340.94;5047903;28;20052;-52
2022/01/02 05:39:58;;;;;;;12.85;3.22;;;;;;;10.81;100.00;101332.38;5048274;28;20381;-53
2022/01/02 05:42:27;;;;;;;13.63;3.28;;;;;;;10.79;100.00;101331.63;5050893;28;20103;-53
2022/01/02 05:44:55;;;;;;;8.15;2.80;;;;;;;10.76;100.00;101330.97;5051055;28;20056;-52
2022/01/02 05:47:23;;;;;;;10.82;4.43;;;;;;;10.71;100.00;101320.69;5053997;28;20049;-54
2022/01/02 05:49:52;;;;;;;6.97;3.00;;;;;;;10.69;100.00;101313.81;5054845;28;20059;-54
2022/01/02 05:52:20;;;;;;;8.15;3.00;;;;;;;10.68;100.00;101306.88;5052453;28;20056;-53
2022/01/02 05:54:48;;;;;;;11.00;3.60;;;;;;;10.64;100.00;101304.41;5052573;28;20053;-54
2022/01/02 05:57:16;;;;;;;8.70;3.58;;;;;;;10.69;100.00;101308.56;5054567;28;20076;-54
2022/01/02 05:59:46;;;;;;;9.65;3.40;;;;;;;10.67;100.00;101310.44;5054644;28;20048;-53
2022/01/02 06:02:14;;;;;;;10.05;3.40;;;;;;;10.62;100.00;101298.41;5052253;28;20705;-54
2022/01/02 06:04:42;;;;;;;12.38;3.60;;;;;;;10.59;100.00;101293.34;5051808;28;20072;-54
2022/01/02 06:07:10;;;;;;;9.77;3.85;;;;;;;10.60;100.00;101287.13;5053794;28;20522;-54
2022/01/02 06:09:38;;;;;;;10.10;3.53;;;;;;;10.54;100.00;101284.84;5054751;28;20539;-53
2022/01/02 06:12:06;;;;;;;14.55;3.90;;;;;;;10.61;100.00;101280.94;5054575;28;20036;-54
2022/01/02 06:14:35;;;;;;;13.60;3.17;;;;;;;10.54;100.00;101273.47;5054641;28;20067;-54
2022/01/02 06:17:04;;;;;;;11.13;3.35;;;;;;;10.55;100.00;101264.66;5051854;28;20049;-54
2022/01/02 06:19:33;;;;;;;11.13;3.55;;;;;;;10.53;100.00;101256.84;5051163;28;20299;-53
2022/01/02 06:22:01;;;;;;;8.70;3.00;;;;;;;10.54;100.00;101236.66;5053894;28;20068;-54
2022/01/02 06:24:29;;;;;;;9.38;3.38;;;;;;;10.55;100.00;101223.44;5054255;28;20056;-52
2022/01/02 06:26:57;;;;;;;10.88;3.10;;;;;;;10.56;100.00;101213.75;5054260;28;20055;-52
2022/01/02 06:29:25;;;;;;;6.03;2.67;;;;;;;10.58;100.00;101212.72;5053847;28;20103;-52
2022/01/02 06:31:54;;;;;;;7.15;2.75;;;;;;;10.57;100.00;101197.88;5054104;28;20047;-51
2022/01/02 06:34:23;;;;;;;9.63;3.33;;;;;;;10.60;100.00;101192.44;5054023;28;20106;-51
2022/01/02 06:36:51;;;;;;;10.68;2.92;;;;;;;10.59;100.00;101182.00;5053402;28;20511;-50
2022/01/02 06:39:19;;;;;;;10.05;3.38;;;;;;;10.54;100.00;101174.41;5051561;28;20080;-51
2022/01/02 06:41:47;;;;;;;11.15;3.10;;;;;;;10.54;100.00;101163.88;5051934;28;20049;-53
2022/01/02 06:44:15;;;;;;;6.72;2.83;;;;;;;10.63;100.00;101162.47;5052108;28;20120;-53
2022/01/02 06:46:43;;;;;;;8.93;2.80;;;;;;;10.64;100.00;101148.38;5049895;28;20057;-53
2022/01/02 06:49:11;;;;;;;9.43;2.95;;;;;;;10.64;100.00;101143.97;5053609;28;20132;-53
2022/01/02 06:51:50;;;;;;;9.95;3.30;;;;;;;10.67;100.00;101121.06;5053791;28;20073;-54
2022/01/02 06:54:18;;;;;;;9.48;3.38;;;;;;;10.59;100.00;101121.50;5052273;28;20080;-52
2022/01/02 06:56:46;;;;;;;8.25;3.20;;;;;;;10.63;100.00;101121.25;5050926;28;20064;-52
2022/01/02 06:59:14;;;;;;;11.95;4.13;;;;;;;10.55;100.00;101106.88;5052301;28;20071;-52
2022/01/02 07:01:42;;;;;;;11.00;3.33;;;;;;;10.47;100.00;101079.25;5049312;28;20037;-53
2022/01/02 07:04:11;;;;;;;8.95;3.60;;;;;;;10.47;100.00;101099.44;5051115;28;20049;-52
2022/01/02 07:06:39;;;;;;;11.10;3.47;;;;;;;10.47;100.00;101083.66;5053451;28;20095;-49
2022/01/02 07:09:08;;;;;;;10.13;3.50;;;;;;;10.47;100.00;101083.66;5053532;28;20508;-52
2022/01/02 07:11:36;;;;;;;7.90;3.50;;;;;;;10.45;100.00;101080.28;5051229;28;20586;-53
2022/01/02 07:14:05;;;;;;;10.38;3.78;;;;;;;10.47;100.00;101081.03;5050872;28;20111;-53
2022/01/02 07:16:33;;;;;;;10.43;3.40;;;;;;;10.50;100.00;101075.59;5053214;28;20091;-53
2022/01/02 07:19:00;;;;;;;10.43;3.45;;;;;;;10.49;100.00;101092.31;5053211;28;20562;-52
2022/01/02 07:21:29;;;;;;;8.73;3.53;;;;;;;10.47;100.00;101087.16;5053066;28;20044;-54
2022/01/02 07:23:58;;;;;;;11.40;3.15;;;;;;;10.49;100.00;101082.63;5051815;28;20049;-54
2022/01/02 07:26:28;;;;;;;8.43;3.42;;;;;;;10.46;100.00;101087.25;5053166;28;20056;-53
2022/01/02 07:28:56;;;;;;;7.78;3.45;;;;;;;10.45;100.00;101090.81;5053291;28;20049;-53
2022/01/02 07:31:24;;;;;;;7.55;2.95;;;;;;;10.46;100.00;101081.97;5053016;28;20041;-54
2022/01/02 07:33:52;;;;;;;9.63;3.60;;;;;;;10.45;100.00;101075.84;5051490;28;20056;-53
2022/01/02 07:36:20;;;;;;;8.32;3.15;;;;;;;10.51;100.00;101058.84;5052782;28;20523;-53
2022/01/02 07:38:48;;;;;;;10.75;3.60;;;;;;;10.40;100.00;101053.41;5052870;28;20052;-54
2022/01/02 07:41:16;;;;;;;9.18;3.53;;;;;;;10.39;100.00;101051.72;5052815;28;20431;-54
2022/01/02 07:43:46;;;;;;;9.55;3.17;;;;;;;10.38;100.00;101043.00;5052005;28;20044;-52
2022/01/02 07:46:14;;;;;;;10.23;3.20;;;;;;;10.32;100.00;101046.81;5048721;28;20049;-54
2022/01/02 07:48:42;;;;;;;10.98;3.28;;;;;;;10.32;100.00;101044.19;5051420;28;20095;-53
2022/01/02 07:51:10;;;;;;;9.63;3.05;;;;;;;10.30;100.00;101034.72;5053075;28;20068;-52
2022/01/02 07:53:38;;;;;;;9.20;3.50;;;;;;;10.31;100.00;101042.50;5052608;28;20072;-54
2022/01/02 07:56:06;;;;;;;8.27;3.20;;;;;;;10.31;100.00;101039.88;5052364;28;20102;-52
2022/01/02 07:58:34;;;;;;;8.90;3.17;;;;;;;10.31;100.00;101031.16;5050464;28;20080;-53
2022/01/02 08:01:04;;;;;;;11.90;3.42;;;;;;;10.32;100.00;101035.44;5051139;28;20041;-54
2022/01/02 08:03:32;;;;;;;7.78;2.90;;;;;;;10.30;100.00;101032.09;5052019;28;20098;-53
2022/01/02 08:06:00;;;;;;;10.15;3.42;;;;;;;10.30;100.00;101038.16;5050663;28;20053;-55
2022/01/02 08:08:28;;;;;;;14.82;3.72;;;;;;;10.27;100.00;101062.03;5051506;28;20049;-52
2022/01/02 08:10:56;;;;;;;8.07;3.05;;;;;;;10.26;100.00;101097.13;5050795;28;20041;-53
2022/01/02 08:13:24;;;;;;;8.80;2.92;;;;;;;10.28;100.00;101095.25;5049936;28;20488;-52
2022/01/02 08:15:52;;;;;;;12.07;3.28;;;;;;;10.31;100.00;101095.06;5051118;28;20091;-51
2022/01/02 08:18:22;;;;;;;6.82;3.17;;;;;;;10.30;100.00;101108.31;5051944;28;20041;-52
2022/01/02 08:20:50;;;;;;;8.15;2.85;;;;;;;10.30;100.00;101109.16;5049541;28;20049;-51
2022/01/02 08:23:18;;;;;;;10.13;3.10;;;;;;;10.31;100.00;101108.22;5049353;28;20045;-52
2022/01/02 08:25:46;;;;;;;9.38;3.40;;;;;;;10.31;100.00;101100.34;5052094;28;20048;-50
2022/01/02 08:28:15;;;;;;;8.00;2.60;;;;;;;10.29;100.00;101102.22;5052001;28;20774;-52
2022/01/02 08:30:43;;;;;;;7.53;3.05;;;;;;;10.36;100.00;101084.34;5051635;28;20057;-53
2022/01/02 08:33:11;;;;;;;7.72;3.08;;;;;;;10.36;100.00;101075.59;5051718;28;20120;-52
2022/01/02 08:35:41;;;;;;;6.65;3.00;;;;;;;10.39;100.00;101075.38;5051065;28;20049;-52
2022/01/02 08:38:09;;;;;;;8.60;3.08;;;;;;;10.40;100.00;101058.69;5048981;28;20049;-50
2022/01/02 08:40:39;;;;;;;9.90;3.00;;;;;;;10.38;100.00;101064.03;5050251;28;20045;-51
2022/01/02 08:43:07;;;;;;;9.68;3.20;;;;;;;10.40;100.00;101069.19;5051792;28;20044;-52
2022/01/02 08:45:38;;;;;;;8.52;2.80;;;;;;;10.43;100.00;101074.25;5051584;28;20064;-53
2022/01/02 08:48:06;;;;;;;7.03;2.80;;;;;;;10.48;100.00;101069.56;5051657;28;20049;-53
2022/01/02 08:50:35;;;;;;;9.63;2.95;;;;;;;10.47;100.00;101081.03;5051562;28;20076;-54
2022/01/02 08:53:04;;;;;;;6.60;2.50;;;;;;;10.51;100.00;101074.63;5051616;28;20069;-54
2022/01/02 08:55:34;;;;;;;7.97;3.10;;;;;;;10.52;100.00;101078.13;5051463;28;20136;-53
2022/01/02 08:58:02;;;;;;;8.50;2.88;;;;;;;10.48;100.00;101066.94;5051319;28;20614;-50
2022/01/02 09:00:31;;;;;;;11.70;2.95;;;;;;;10.49;100.00;101052.88;5051411;28;20061;-53
2022/01/02 09:03:00;;;;;;;6.50;2.40;;;;;;;10.44;100.00;101042.66;5050604;28;20033;-51
2022/01/02 09:05:28;;;;;;;7.05;2.72;;;;;;;10.46;100.00;101040.75;5047400;28;20041;-53
2022/01/02 09:07:56;;;;;;;6.15;3.03;;;;;;;10.43;100.00;101046.19;5049999;28;20072;-53
2022/01/02 09:10:26;;;;;;;5.50;2.53;;;;;;;10.48;100.00;101052.03;5049129;28;20446;-54
2022/01/02 09:12:54;;;;;;;8.02;2.80;;;;;;;10.39;100.00;101049.97;5049119;28;20052;-52
2022/01/02 09:15:22;;;;;;;8.18;2.60;;;;;;;10.45;100.00;101051.38;5050301;28;20048;-54
2022/01/02 09:17:50;;;;;;;9.25;2.85;;;;;;;10.44;100.00;101055.78;5047317;28;20491;-54
2022/01/02 09:20:20;;;;;;;7.70;2.97;;;;;;;10.46;100.00;101053.06;5051230;28;20068;-53
2022/01/02 09:22:49;;;;;;;6.38;2.90;;;;;;;10.48;100.00;101048.53;5055647;28;20049;-52
2022/01/02 09:25:17;;;;;;;6.57;2.88;;;;;;;10.49;100.00;101042.34;5055348;28;20569;-52
2022/01/02 09:27:46;;;;;;;6.28;2.45;;;;;;;10.55;100.00;101038.50;5055506;28;20057;-53
2022/01/02 09:30:14;;;;;;;7.00;2.75;;;;;;;10.59;100.00;101034.72;5055120;28;20061;-54
2022/01/02 09:32:42;;;;;;;9.73;3.08;;;;;;;10.56;100.00;101048.06;5055514;28;20098;-55
2022/01/02 09:35:11;;;;;;;6.65;2.60;;;;;;;10.56;100.00;101045.44;5055333;28;20055;-54
2022/01/02 09:37:39;;;;;;;6.50;2.70;;;;;;;10.66;100.00;101046.53;5055005;28;20107;-54
2022/01/02 09:40:09;;;;;;;6.05;3.13;;;;;;;10.69;100.00;101049.00;5054749;28;20083;-54
2022/01/02 09:42:38;;;;;;;6.60;2.50;;;;;;;10.77;100.00;101048.50;5054696;28;20446;-54
2022/01/02 09:45:09;;;;;;;8.88;3.03;;;;;;;10.78;100.00;101044.94;5055163;28;20055;-55
2022/01/02 09:47:38;;;;;;;7.32;3.03;;;;;;;10.78;100.00;101039.69;5053285;28;20519;-53
2022/01/02 09:50:11;;;;;;;6.33;3.40;;;;;;;10.73;100.00;101039.97;5052884;28;20431;-54
2022/01/02 09:52:39;;;;;;;8.90;3.03;;;;;;;10.76;100.00;101046.84;5054417;28;20984;-49
2022/01/02 09:55:07;;;;;;;5.90;2.80;;;;;;;10.75;100.00;101047.78;5054461;28;20049;-54
2022/01/02 09:57:35;;;;;;;8.20;3.38;;;;;;;10.78;100.00;101039.69;5054788;28;20040;-55
2022/01/02 10:00:05;;;;;;;7.95;3.08;;;;;;;10.79;100.00;101044.84;5054680;28;20383;-52
2022/01/02 10:02:59;;;;;;;9.80;3.25;;;;;;;10.78;100.00;101035.28;5054653;28;20528;-54
2022/01/02 10:05:29;;;;;;;7.22;3.00;;;;;;;10.83;100.00;101035.81;5052080;28;20052;-54
2022/01/02 10:07:58;;;;;;;8.55;3.53;;;;;;;10.77;100.00;101037.97;5052473;28;20491;-54
2022/01/02 10:10:34;;;;;;;9.05;3.80;;;;;;;10.77;100.00;101037.97;5054952;28;20053;-54
2022/01/02 10:13:04;;;;;;;11.75;3.65;;;;;;;10.79;100.00;101036.13;5054416;28;20385;-56
2022/01/02 10:15:34;;;;;;;7.32;3.30;;;;;;;10.79;100.00;101031.69;5054450;28;20045;-55
2022/01/02 10:18:05;;;;;;;9.90;3.80;;;;;;;10.85;100.00;101040.97;5054555;28;20045;-55
2022/01/02 10:20:37;;;;;;;9.77;3.65;;;;;;;10.89;100.00;101026.69;5054680;28;20518;-55
2022/01/02 10:23:11;;;;;;;7.65;3.80;;;;;;;10.90;100.00;101041.53;5053576;28;20045;-54
2022/01/02 10:25:51;;;;;;;8.93;3.92;;;;;;;10.99;100.00;101038.31;5054316;28;20443;-54
2022/01/02 10:28:31;;;;;;;8.68;3.67;;;;;;;11.07;100.00;101039.63;5054346;28;20072;-54
2022/01/02 10:31:02;;;;;;;10.30;3.33;;;;;;;11.15;100.00;101032.06;5053862;28;20060;-55
2022/01/02 10:33:46;;;;;;;10.40;4.50;;;;;;;11.22;100.00;101029.88;5053595;28;20048;-54
2022/01/02 10:36:15;;;;;;;9.70;4.63;;;;;;;11.25;100.00;101027.91;5053908;28;20436;-55
2022/01/02 10:38:59;;;;;;;9.02;4.05;;;;;;;11.25;100.00;101024.44;5051197;28;20432;-55
2022/01/02 10:41:33;;;;;;;10.80;4.43;;;;;;;11.27;100.00;101028.63;5052150;28;20053;-53
2022/01/02 10:44:31;;;;;;;9.80;4.03;;;;;;;11.28;100.00;101037.41;5053955;28;20439;-52
2022/01/02 10:47:15;;;;;;;7.82;3.83;;;;;;;11.32;100.00;101038.88;5053220;28;20124;-54
2022/01/02 10:49:59;;;;;;;8.63;3.80;;;;;;;11.39;100.00;101029.63;5051443;28;20077;-55
2022/01/02 10:52:28;;;;;;;9.65;3.83;;;;;;;11.37;100.00;101025.41;5053094;28;20504;-54
2022/01/02 10:54:59;;;;;;;10.45;3.70;;;;;;;11.42;100.00;101020.69;5054013;28;20061;-55
2022/01/02 10:57:29;;;;;;;9.53;3.93;;;;;;;11.50;100.00;101018.41;5053885;28;20055;-53
2022/01/02 10:59:59;;;;;;;10.63;3.88;;;;;;;11.61;100.00;101021.16;5053801;28;20075;-52
2022/01/02 11:02:28;;;;;;;7.40;3.95;;;;;;;11.59;100.00;101024.81;5053475;28;20404;-53
2022/01/02 11:05:02;;;;;;;13.50;4.40;;;;;;;11.57;100.00;101024.94;5053392;28;20045;-53
2022/01/02 11:07:39;;;;;;;11.43;5.15;;;;;;;11.58;100.00;101033.69;5050165;28;20411;-52
2022/01/02 11:10:09;;;;;;;10.82;3.85;;;;;;;11.57;100.00;101037.28;5051466;28;20045;-53
2022/01/02 11:12:38;;;;;;;9.15;3.78;;;;;;;11.57;100.00;101032.84;5053730;28;20462;-52
2022/01/02 11:15:09;;;;;;;10.95;3.97;;;;;;;11.49;100.00;101038.63;5051523;28;20785;-51
2022/01/02 11:17:38;;;;;;;11.60;3.88;;;;;;;11.53;100.00;101035.78;5049528;28;20049;-54
2022/01/02 11:20:10;;;;;;;9.18;3.70;;;;;;;11.58;100.00;101033.69;5053081;28;20053;-54
2022/01/02 11:22:43;;;;;;;10.25;4.10;;;;;;;11.53;100.00;101031.34;5052392;28;20057;-50
2022/01/02 11:25:19;;;;;;;10.10;3.95;;;;;;;11.52;100.00;101034.09;5050473;28;20055;-53
2022/01/02 11:27:53;;;;;;;8.13;3.55;;;;;;;11.56;100.00;101040.84;5051976;28;20106;-51
2022/01/02 11:30:41;;;;;;;9.30;3.45;;;;;;;11.58;100.00;101028.44;5052906;28;20064;-52
2022/01/02 11:33:13;;;;;;;8.35;3.58;;;;;;;11.58;100.00;101028.44;5051652;28;20057;-53